Time;durP1;ratioP1;P1;durP2;ratioP2;P2;SDS_P1;SDS_P2;PMS_P1;PMS_P2;Temp;Humidity;BMP_temperature;BMP_pressure;BME280_temperature;BME280_humidity;BME280_pressure;Samples;Min_cycle;Max_cycle;Signal;HPM_P1;HPM_P2
2024/01/02 00:01:58;;;;;;;2.70;0.83;;;8.80;46.80;;;;;;20705;6869;117752;-85
2024/01/02 00:04:24;;;;;;;1.10;1.00;;;8.90;46.70;;;;;;20704;6869;117459;-85
2024/01/02 00:06:50;;;;;;;2.23;1.20;;;8.70;46.90;;;;;;20472;6869;309713;-85
2024/01/02 00:09:15;;;;;;;3.42;1.40;;;8.80;46.90;;;;;;20489;6869;338806;-85
2024/01/02 00:11:41;;;;;;;2.00;1.17;;;9.10;46.50;;;;;;20700;6869;117391;-85
2024/01/02 00:14:06;;;;;;;1.57;0.90;;;9.00;46.30;;;;;;20704;6868;117298;-85
2024/01/02 00:16:32;;;;;;;2.40;1.15;;;8.80;46.60;;;;;;20482;6868;290720;-85
2024/01/02 00:18:58;;;;;;;2.70;1.13;;;9.20;46.50;;;;;;20491;6869;310103;-85
2024/01/02 00:21:24;;;;;;;3.00;1.10;;;9.20;46.50;;;;;;20703;6869;117971;-85
2024/01/02 00:23:49;;;;;;;1.83;1.10;;;9.10;46.30;;;;;;20489;6869;309745;-85
2024/01/02 00:26:16;;;;;;;1.67;0.80;;;9.10;47.10;;;;;;20707;6869;117210;-85
2024/01/02 00:28:41;;;;;;;2.63;1.33;;;9.10;46.40;;;;;;20463;6869;306948;-85
2024/01/02 00:31:07;;;;;;;2.30;1.13;;;9.10;46.50;;;;;;20703;6869;117312;-85
2024/01/02 00:33:32;;;;;;;1.90;1.07;;;9.00;46.40;;;;;;20493;6869;287381;-85
2024/01/02 00:35:58;;;;;;;4.70;1.17;;;9.10;46.50;;;;;;20498;6869;310190;-85
2024/01/02 00:38:27;;;;;;;1.90;1.10;;;9.40;46.40;;;;;;20706;6869;117368;-85
2024/01/02 00:40:50;;;;;;;3.20;1.17;;;9.30;46.20;;;;;;20461;6869;309718;-85
2024/01/02 00:43:15;;;;;;;4.12;1.10;;;9.30;46.30;;;;;;20488;6869;338927;-85
2024/01/02 00:45:41;;;;;;;1.87;0.90;;;9.50;45.50;;;;;;20709;6869;117312;-85
2024/01/02 00:48:06;;;;;;;1.37;1.00;;;9.40;45.70;;;;;;20493;6869;307848;-85
2024/01/02 00:50:32;;;;;;;1.15;0.98;;;9.60;45.70;;;;;;20479;6869;310135;-86
2024/01/02 00:52:58;;;;;;;2.27;1.13;;;9.60;45.70;;;;;;20491;6869;307546;-85
2024/01/02 00:55:24;;;;;;;1.80;1.05;;;9.80;45.40;;;;;;20488;6869;310805;-85
2024/01/02 00:57:50;;;;;;;1.87;1.00;;;9.70;45.20;;;;;;20713;6869;117874;-85
2024/01/02 01:00:16;;;;;;;0.70;0.70;;;9.60;45.20;;;;;;20703;6869;118175;-85
2024/01/02 01:02:41;;;;;;;1.93;1.10;;;9.40;45.70;;;;;;20470;6869;311690;-85
2024/01/02 01:05:07;;;;;;;2.57;0.90;;;9.20;46.20;;;;;;20706;6869;117209;-85
2024/01/02 01:07:33;;;;;;;1.30;0.90;;;9.20;46.20;;;;;;20486;6869;312874;-84
2024/01/02 01:09:59;;;;;;;2.40;1.10;;;9.30;46.60;;;;;;20706;6869;117066;-84
2024/01/02 01:12:24;;;;;;;3.10;1.30;;;9.20;46.50;;;;;;20491;6869;295513;-85
2024/01/02 01:14:50;;;;;;;1.60;0.80;;;9.20;46.50;;;;;;20483;6869;309203;-85
2024/01/02 01:17:15;;;;;;;0.90;0.70;;;9.40;46.20;;;;;;20496;6869;309464;-85
2024/01/02 01:19:41;;;;;;;1.98;0.93;;;9.60;45.90;;;;;;20484;6869;299194;-85
2024/01/02 01:22:07;;;;;;;0.90;0.90;;;9.60;45.80;;;;;;20680;6869;117371;-85
2024/01/02 01:24:33;;;;;;;1.43;0.90;;;9.60;45.70;;;;;;20472;6869;311054;-85
2024/01/02 01:26:59;;;;;;;1.58;0.80;;;9.50;45.90;;;;;;20496;6867;279475;-85
2024/01/02 01:29:24;;;;;;;1.43;0.70;;;9.70;45.80;;;;;;20709;6869;117493;-85
2024/01/02 01:31:50;;;;;;;1.62;0.80;;;9.50;46.10;;;;;;20493;6869;289549;-85
2024/01/02 01:34:16;;;;;;;5.67;1.07;;;9.50;46.10;;;;;;20707;6869;117531;-84
2024/01/02 01:36:41;;;;;;;1.17;0.82;;;9.40;46.20;;;;;;20474;6869;280946;-85
2024/01/02 01:39:08;;;;;;;2.78;0.95;;;9.60;46.30;;;;;;20488;6869;305643;-85
2024/01/02 01:41:33;;;;;;;1.00;0.70;;;9.60;46.30;;;;;;20704;6869;117358;-84
2024/01/02 01:43:59;;;;;;;1.30;0.67;;;9.50;46.10;;;;;;20709;6869;117044;-85
2024/01/02 01:46:26;;;;;;;1.40;0.73;;;9.20;46.50;;;;;;20500;6869;280307;-84
2024/01/02 01:48:53;;;;;;;1.23;0.80;;;9.20;46.80;;;;;;20482;6869;279405;-85
2024/01/02 01:51:19;;;;;;;1.00;0.77;;;9.60;46.40;;;;;;20492;6869;340053;-87
2024/01/02 01:53:45;;;;;;;2.03;0.83;;;9.60;46.40;;;;;;20702;6869;119783;-85
2024/01/02 01:56:10;;;;;;;1.15;0.65;;;9.50;46.40;;;;;;20706;6869;117250;-85
2024/01/02 01:58:37;;;;;;;1.12;0.50;;;9.20;46.60;;;;;;20466;6869;340403;-85
2024/01/02 02:01:03;;;;;;;0.88;0.62;;;9.20;47.00;;;;;;20489;6869;308485;-85
2024/01/02 02:03:28;;;;;;;1.27;0.67;;;9.50;46.90;;;;;;20706;6869;117606;-84
2024/01/02 02:05:54;;;;;;;1.03;0.60;;;9.40;46.70;;;;;;20492;6869;280533;-85
2024/01/02 02:08:19;;;;;;;0.68;0.60;;;9.40;46.90;;;;;;20496;6869;308959;-85
2024/01/02 02:10:45;;;;;;;1.10;0.60;;;9.60;46.60;;;;;;20473;6869;309763;-85
2024/01/02 02:13:11;;;;;;;0.47;0.47;;;9.70;46.40;;;;;;20707;6869;117496;-85
2024/01/02 02:15:40;;;;;;;1.20;0.60;;;9.70;46.40;;;;;;20491;6869;297616;-85
2024/01/02 02:18:03;;;;;;;1.85;0.80;;;9.60;47.30;;;;;;20484;6869;279265;-85
2024/01/02 02:20:28;;;;;;;0.40;0.40;;;9.80;46.50;;;;;;20676;6869;118747;-85
2024/01/02 02:22:54;;;;;;;0.70;0.30;;;9.70;46.40;;;;;;20704;6869;117797;-85
2024/01/02 02:25:20;;;;;;;0.50;0.50;;;9.20;47.20;;;;;;20708;6869;117329;-85
2024/01/02 02:27:46;;;;;;;0.87;0.30;;;9.10;47.20;;;;;;20706;6869;119739;-85
2024/01/02 02:30:12;;;;;;;0.90;0.60;;;9.00;47.50;;;;;;20485;6869;279055;-84
2024/01/02 02:32:38;;;;;;;0.70;0.50;;;9.10;47.90;;;;;;20475;6869;308563;-85
2024/01/02 02:35:04;;;;;;;0.40;0.40;;;9.40;47.50;;;;;;20704;6869;117768;-85
2024/01/02 02:37:29;;;;;;;0.77;0.40;;;9.40;47.30;;;;;;20466;6867;323183;-85
2024/01/02 02:39:55;;;;;;;1.10;0.50;;;9.50;47.40;;;;;;20492;6868;328943;-85
2024/01/02 02:42:21;;;;;;;0.80;0.50;;;9.70;47.00;;;;;;20489;6869;337911;-85
2024/01/02 02:44:46;;;;;;;0.62;0.50;;;9.90;46.60;;;;;;20480;6869;280999;-85
2024/01/02 02:47:12;;;;;;;1.13;0.40;;;10.10;45.30;;;;;;20711;6869;117536;-85
2024/01/02 02:49:37;;;;;;;0.40;0.40;;;9.90;46.20;;;;;;20707;6869;118326;-85
2024/01/02 02:52:03;;;;;;;0.33;0.30;;;9.70;46.70;;;;;;20699;6869;117589;-86
2024/01/02 02:54:29;;;;;;;0.50;0.50;;;9.10;47.40;;;;;;20684;6869;117976;-90
2024/01/02 02:56:56;;;;;;;0.43;0.33;;;9.00;47.70;;;;;;20710;6869;117467;-93
2024/01/02 02:59:22;;;;;;;0.68;0.50;;;9.10;48.00;;;;;;20490;6869;310566;-86
2024/01/02 03:01:48;;;;;;;0.40;0.40;;;9.10;48.00;;;;;;20490;6869;309105;-85
2024/01/02 03:04:13;;;;;;;0.33;0.33;;;9.40;47.70;;;;;;20700;6869;117270;-84
2024/01/02 03:06:39;;;;;;;0.90;0.50;;;9.50;47.50;;;;;;20475;6869;324826;-85
2024/01/02 03:09:06;;;;;;;0.40;0.40;;;9.60;47.60;;;;;;20496;6869;338340;-84
2024/01/02 03:11:31;;;;;;;0.63;0.43;;;9.80;47.40;;;;;;20695;6869;117910;-84
2024/01/02 03:13:57;;;;;;;0.40;0.40;;;9.70;47.10;;;;;;20710;6869;117258;-84
2024/01/02 03:16:23;;;;;;;0.70;0.40;;;9.50;47.50;;;;;;20499;6869;279185;-85
2024/01/02 03:18:48;;;;;;;0.77;0.20;;;9.50;48.00;;;;;;20684;6869;118250;-85
2024/01/02 03:21:14;;;;;;;0.33;0.27;;;9.50;47.90;;;;;;20702;6869;117425;-85
2024/01/02 03:23:39;;;;;;;0.70;0.30;;;9.40;48.10;;;;;;20490;6869;324787;-85
2024/01/02 03:26:05;;;;;;;0.22;0.22;;;9.40;48.80;;;;;;20500;6869;309118;-85
2024/01/02 03:28:31;;;;;;;0.35;0.35;;;9.70;48.90;;;;;;20475;6869;295126;-85
2024/01/02 03:30:56;;;;;;;0.30;0.20;;;10.00;47.50;;;;;;20703;6869;117834;-85
2024/01/02 03:33:21;;;;;;;0.27;0.27;;;9.90;48.20;;;;;;20696;6869;117287;-85
2024/01/02 03:35:47;;;;;;;0.17;0.17;;;9.60;48.40;;;;;;20705;6869;117682;-85
2024/01/02 03:38:13;;;;;;;0.40;0.40;;;9.40;48.80;;;;;;20708;6869;117364;-84
2024/01/02 03:40:38;;;;;;;0.40;0.40;;;9.20;49.10;;;;;;20470;6869;280915;-85
2024/01/02 03:43:04;;;;;;;0.57;0.37;;;9.30;50.30;;;;;;20486;6869;340883;-85
2024/01/02 03:45:31;;;;;;;1.00;0.40;;;9.60;50.60;;;;;;20709;6869;117857;-85
2024/01/02 03:47:57;;;;;;;1.60;0.30;;;9.70;50.90;;;;;;20496;6869;279300;-85
2024/01/02 03:50:23;;;;;;;0.30;0.20;;;9.60;50.50;;;;;;20689;6867;119356;-84
2024/01/02 03:52:50;;;;;;;0.63;0.30;;;9.40;50.70;;;;;;20645;6869;118274;-84
2024/01/02 03:55:16;;;;;;;1.70;0.30;;;9.40;51.90;;;;;;20499;6869;278980;-85
2024/01/02 03:57:41;;;;;;;0.40;0.27;;;9.40;51.80;;;;;;20706;6869;117695;-85
2024/01/02 04:00:08;;;;;;;0.57;0.40;;;9.40;51.60;;;;;;20694;6869;118308;-84
2024/01/02 04:02:33;;;;;;;0.40;0.20;;;9.20;51.60;;;;;;20464;6869;310534;-85
2024/01/02 04:05:01;;;;;;;0.37;0.20;;;9.30;52.50;;;;;;20705;6869;117674;-84
2024/01/02 04:07:27;;;;;;;0.75;0.20;;;9.30;53.10;;;;;;20492;6869;338760;-85
2024/01/02 04:09:52;;;;;;;0.20;0.20;;;9.30;53.10;;;;;;20704;6869;120296;-84
2024/01/02 04:12:18;;;;;;;0.40;0.20;;;9.30;52.70;;;;;;20701;6869;117327;-85
2024/01/02 04:14:44;;;;;;;0.77;0.33;;;9.10;52.80;;;;;;20473;6869;336918;-85
2024/01/02 04:17:09;;;;;;;0.40;0.30;;;9.20;54.00;;;;;;20489;6869;340787;-84
2024/01/02 04:19:35;;;;;;;0.20;0.20;;;9.40;54.10;;;;;;20702;6869;120389;-85
2024/01/02 04:22:00;;;;;;;0.30;0.30;;;9.40;53.60;;;;;;20491;6869;287206;-84
2024/01/02 04:24:26;;;;;;;0.30;0.30;;;9.40;54.10;;;;;;20494;6869;321346;-84
2024/01/02 04:26:51;;;;;;;0.30;0.30;;;9.70;54.20;;;;;;20376;6864;118636;-84
2024/01/02 04:29:17;;;;;;;0.30;0.30;;;9.50;53.60;;;;;;20493;6864;338799;-84
2024/01/02 04:31:43;;;;;;;0.20;0.20;;;9.70;55.00;;;;;;20445;6884;279477;-84
2024/01/02 04:34:09;;;;;;;0.50;0.20;;;9.70;54.30;;;;;;20493;6869;309508;-84
2024/01/02 04:36:34;;;;;;;0.50;0.30;;;9.90;54.10;;;;;;20474;6869;281017;-84
2024/01/02 04:39:01;;;;;;;0.90;0.28;;;10.10;53.00;;;;;;20496;6869;309654;-84
2024/01/02 04:41:26;;;;;;;0.70;0.30;;;10.10;53.00;;;;;;20483;6869;333064;-84
2024/01/02 04:43:52;;;;;;;0.50;0.20;;;10.10;52.90;;;;;;20707;6869;118629;-84
2024/01/02 04:46:18;;;;;;;0.35;0.20;;;9.90;53.70;;;;;;20490;6869;279066;-84
2024/01/02 04:48:44;;;;;;;0.20;0.20;;;9.60;54.30;;;;;;20667;6869;117162;-84
2024/01/02 04:51:09;;;;;;;0.47;0.30;;;9.60;54.30;;;;;;20700;6869;117751;-84
2024/01/02 04:53:35;;;;;;;3.25;0.40;;;9.30;54.60;;;;;;20488;6869;282328;-84
2024/01/02 04:56:02;;;;;;;0.33;0.33;;;9.20;55.40;;;;;;20707;6869;117426;-85
2024/01/02 04:58:28;;;;;;;0.30;0.30;;;9.00;55.50;;;;;;20668;6869;126932;-84
2024/01/02 05:00:53;;;;;;;1.90;0.40;;;9.00;55.50;;;;;;20716;6867;67600;-83
2024/01/02 05:03:19;;;;;;;1.25;0.43;;;8.70;55.70;;;;;;20495;6868;309038;-83
2024/01/02 05:05:44;;;;;;;0.30;0.30;;;8.80;56.90;;;;;;20712;6869;68142;-84
2024/01/02 05:08:12;;;;;;;0.50;0.50;;;8.80;56.50;;;;;;20710;6869;68081;-84
2024/01/02 05:10:38;;;;;;;1.37;0.50;;;8.70;56.60;;;;;;20494;6869;310682;-84
2024/01/02 05:13:04;;;;;;;0.50;0.50;;;8.80;57.70;;;;;;20500;6869;279040;-84
2024/01/02 05:15:30;;;;;;;0.37;0.37;;;9.00;57.70;;;;;;20497;6869;281387;-84
2024/01/02 05:17:57;;;;;;;0.40;0.40;;;9.20;57.50;;;;;;20726;6869;67587;-84
2024/01/02 05:20:23;;;;;;;1.00;0.50;;;9.10;56.80;;;;;;20495;6869;305569;-84
2024/01/02 05:22:49;;;;;;;0.50;0.40;;;9.20;57.40;;;;;;20472;6869;311812;-84
2024/01/02 05:25:14;;;;;;;0.32;0.28;;;9.40;57.30;;;;;;20498;6869;278640;-85
2024/01/02 05:27:40;;;;;;;0.40;0.40;;;9.50;56.90;;;;;;20496;6869;309613;-84
2024/01/02 05:30:06;;;;;;;0.40;0.40;;;9.50;56.40;;;;;;20701;6869;119926;-84
2024/01/02 05:32:32;;;;;;;0.33;0.33;;;9.50;56.50;;;;;;20685;6869;144294;-84
2024/01/02 05:34:58;;;;;;;0.50;0.40;;;9.20;57.90;;;;;;20493;6869;310061;-84
2024/01/02 05:37:24;;;;;;;0.77;0.47;;;9.20;57.40;;;;;;20709;6869;120151;-84
2024/01/02 05:39:50;;;;;;;0.30;0.30;;;8.90;57.30;;;;;;20701;6869;120008;-84
2024/01/02 05:42:16;;;;;;;1.10;0.40;;;8.90;58.00;;;;;;20491;6869;279546;-84
2024/01/02 05:44:42;;;;;;;0.97;0.30;;;8.90;58.60;;;;;;20687;6869;117396;-84
2024/01/02 05:47:07;;;;;;;0.32;0.32;;;8.90;57.60;;;;;;20488;6869;308696;-84
2024/01/02 05:49:33;;;;;;;0.30;0.30;;;9.00;58.10;;;;;;20497;6869;280284;-84
2024/01/02 05:51:58;;;;;;;0.40;0.40;;;9.20;57.80;;;;;;20705;6869;117784;-84
2024/01/02 05:54:24;;;;;;;0.50;0.40;;;9.10;57.30;;;;;;20491;6869;310464;-84
2024/01/02 05:56:50;;;;;;;0.40;0.40;;;9.10;57.30;;;;;;20688;6869;118117;-85
2024/01/02 05:59:17;;;;;;;0.50;0.40;;;9.10;57.30;;;;;;20698;6869;118350;-84
2024/01/02 06:01:43;;;;;;;0.20;0.20;;;8.90;57.50;;;;;;20694;6869;117778;-84
2024/01/02 06:04:08;;;;;;;0.43;0.43;;;8.70;57.70;;;;;;20478;6869;309129;-84
2024/01/02 06:06:34;;;;;;;0.40;0.40;;;8.90;58.30;;;;;;20469;6869;280391;-84
2024/01/02 06:09:00;;;;;;;0.37;0.37;;;9.10;57.90;;;;;;20479;6869;331021;-84
2024/01/02 06:11:25;;;;;;;0.93;0.30;;;9.40;57.40;;;;;;20715;6869;117194;-84
2024/01/02 06:13:51;;;;;;;0.30;0.25;;;9.30;56.90;;;;;;20727;6867;118215;-84
2024/01/02 06:16:17;;;;;;;0.50;0.33;;;8.90;57.40;;;;;;20691;6869;119132;-84
2024/01/02 06:18:43;;;;;;;0.30;0.30;;;8.90;57.30;;;;;;20499;6869;307385;-83
2024/01/02 06:21:08;;;;;;;0.25;0.25;;;9.00;57.80;;;;;;20744;6869;116541;-82
2024/01/02 06:23:34;;;;;;;0.20;0.20;;;9.00;57.50;;;;;;20727;6869;117792;-84
2024/01/02 06:25:59;;;;;;;0.17;0.17;;;8.80;57.50;;;;;;20696;6869;117694;-84
2024/01/02 06:28:26;;;;;;;0.28;0.28;;;8.70;57.70;;;;;;20451;6869;337569;-84
2024/01/02 06:30:52;;;;;;;0.20;0.20;;;8.90;58.20;;;;;;20686;6869;117956;-85
2024/01/02 06:33:17;;;;;;;0.30;0.30;;;8.90;57.70;;;;;;20700;6869;118381;-84
2024/01/02 06:35:44;;;;;;;0.20;0.20;;;8.80;57.70;;;;;;20485;6869;279538;-86
2024/01/02 06:38:09;;;;;;;0.33;0.33;;;9.00;58.20;;;;;;20705;6869;117332;-83
2024/01/02 06:40:39;;;;;;;0.20;0.20;;;9.00;57.80;;;;;;20682;6869;117529;-84
2024/01/02 06:43:04;;;;;;;0.20;0.20;;;8.80;58.00;;;;;;20692;6869;118290;-84
2024/01/02 06:45:30;;;;;;;0.30;0.30;;;8.70;57.90;;;;;;20464;6869;279877;-84
2024/01/02 06:47:56;;;;;;;0.10;0.10;;;9.00;58.30;;;;;;20622;6869;117844;-84
2024/01/02 06:50:21;;;;;;;0.20;0.20;;;9.00;57.80;;;;;;20462;6869;337517;-83
2024/01/02 06:52:47;;;;;;;0.30;0.30;;;9.10;57.80;;;;;;20432;6869;312395;-83
2024/01/02 06:55:12;;;;;;;0.30;0.30;;;9.40;57.30;;;;;;20472;6869;310105;-84
2024/01/02 06:57:39;;;;;;;1.50;0.40;;;9.70;56.60;;;;;;20697;6869;117072;-84
2024/01/02 07:00:06;;;;;;;0.47;0.20;;;9.70;56.40;;;;;;20479;6869;310106;-84
2024/01/02 07:02:32;;;;;;;0.20;0.20;;;9.70;56.40;;;;;;20673;6869;118780;-84
2024/01/02 07:04:58;;;;;;;0.30;0.30;;;9.40;56.40;;;;;;20703;6869;118477;-85
2024/01/02 07:07:23;;;;;;;0.10;0.10;;;9.40;56.40;;;;;;20475;6869;310532;-84
2024/01/02 07:09:49;;;;;;;0.20;0.20;;;9.50;56.90;;;;;;20704;6869;117861;-84
2024/01/02 07:12:14;;;;;;;0.20;0.20;;;9.40;56.60;;;;;;20707;6869;117603;-82
2024/01/02 07:14:41;;;;;;;0.30;0.30;;;9.30;56.70;;;;;;20493;6869;337850;-83
2024/01/02 07:17:07;;;;;;;0.43;0.30;;;9.40;57.20;;;;;;20517;6869;308928;-85
2024/01/02 07:19:31;;;;;;;1.40;0.30;;;9.70;57.10;;;;;;20517;6869;307532;-84
2024/01/02 07:21:57;;;;;;;0.53;0.20;;;9.90;56.40;;;;;;20553;6869;278813;-82
2024/01/02 07:24:22;;;;;;;0.37;0.20;;;10.10;54.90;;;;;;20559;6867;337831;-84
2024/01/02 07:26:48;;;;;;;0.57;0.30;;;10.30;54.60;;;;;;20725;6869;118220;-84
2024/01/02 07:29:13;;;;;;;0.30;0.30;;;10.10;54.30;;;;;;20512;6869;308560;-84
2024/01/02 07:31:39;;;;;;;0.40;0.23;;;10.10;54.80;;;;;;20516;6869;290869;-84
2024/01/02 07:34:05;;;;;;;0.40;0.20;;;10.30;54.60;;;;;;20504;6869;278973;-84
2024/01/02 07:36:31;;;;;;;0.30;0.30;;;10.20;54.10;;;;;;20699;6869;118380;-84
2024/01/02 07:38:57;;;;;;;0.30;0.30;;;10.00;54.50;;;;;;20709;6869;119141;-84
2024/01/02 07:41:23;;;;;;;0.30;0.20;;;10.00;54.50;;;;;;20521;6869;308069;-83
2024/01/02 07:43:49;;;;;;;0.30;0.30;;;10.00;55.20;;;;;;20746;6869;116260;-84
2024/01/02 07:46:14;;;;;;;0.13;0.13;;;9.90;56.00;;;;;;20747;6869;117183;-84
2024/01/02 07:48:40;;;;;;;0.10;0.10;;;9.70;56.20;;;;;;20726;6869;117710;-84
2024/01/02 07:51:05;;;;;;;0.40;0.20;;;9.50;56.40;;;;;;20527;6869;337970;-84
2024/01/02 07:53:32;;;;;;;0.55;0.30;;;9.70;57.40;;;;;;20732;6869;116352;-84
2024/01/02 07:55:57;;;;;;;0.10;0.10;;;9.70;56.90;;;;;;20696;6869;117510;-84
2024/01/02 07:58:23;;;;;;;0.30;0.30;;;9.50;57.00;;;;;;20506;6869;279990;-84
2024/01/02 08:00:48;;;;;;;0.40;0.20;;;9.60;57.50;;;;;;20458;6869;311119;-84
2024/01/02 08:03:14;;;;;;;0.10;0.10;;;9.90;57.40;;;;;;20686;6869;117796;-84
2024/01/02 08:05:40;;;;;;;0.50;0.20;;;10.00;56.20;;;;;;20491;6869;337847;-85
2024/01/02 08:08:06;;;;;;;0.30;0.30;;;10.00;56.20;;;;;;20681;6869;117258;-86
2024/01/02 08:10:32;;;;;;;0.50;0.20;;;9.90;56.80;;;;;;20448;6869;308923;-86
2024/01/02 08:12:57;;;;;;;0.28;0.28;;;10.00;56.20;;;;;;20484;6869;279184;-86
2024/01/02 08:15:22;;;;;;;0.30;0.20;;;10.20;56.00;;;;;;20709;6869;120482;-85
2024/01/02 08:17:48;;;;;;;0.30;0.30;;;10.20;55.60;;;;;;20502;6869;337925;-86
2024/01/02 08:20:14;;;;;;;0.77;0.30;;;10.20;55.80;;;;;;20706;6869;118234;-86
2024/01/02 08:22:39;;;;;;;0.30;0.30;;;10.10;55.50;;;;;;20685;6869;117984;-84
2024/01/02 08:25:08;;;;;;;1.10;0.33;;;9.90;56.70;;;;;;20700;6869;118026;-84
2024/01/02 08:27:34;;;;;;;0.30;0.30;;;9.70;57.00;;;;;;20480;6869;308814;-85
2024/01/02 08:29:59;;;;;;;0.20;0.20;;;9.80;57.50;;;;;;20680;6869;117318;-86
2024/01/02 08:32:25;;;;;;;0.50;0.30;;;9.80;57.20;;;;;;20490;6869;279157;-86
2024/01/02 08:34:50;;;;;;;0.50;0.30;;;10.00;56.60;;;;;;20452;6868;304931;-86
2024/01/02 08:37:16;;;;;;;0.27;0.27;;;10.20;56.20;;;;;;20706;6868;117102;-86
2024/01/02 08:39:41;;;;;;;0.20;0.20;;;10.20;55.80;;;;;;20489;6869;312180;-86
2024/01/02 08:42:08;;;;;;;0.28;0.28;;;10.20;55.90;;;;;;20695;6869;117413;-85
2024/01/02 08:44:34;;;;;;;0.70;0.20;;;10.20;55.90;;;;;;20683;6869;128168;-83
2024/01/02 08:46:59;;;;;;;0.35;0.30;;;10.00;56.10;;;;;;20478;6869;279482;-88
2024/01/02 08:49:24;;;;;;;0.30;0.30;;;10.10;56.60;;;;;;20495;6869;278620;-87
2024/01/02 08:51:51;;;;;;;1.33;0.20;;;10.30;55.80;;;;;;20708;6869;117705;-86
2024/01/02 08:54:16;;;;;;;0.20;0.20;;;10.30;55.80;;;;;;20490;6869;309359;-87
2024/01/02 08:56:42;;;;;;;0.20;0.20;;;10.40;55.90;;;;;;20684;6869;120205;-87
2024/01/02 08:59:08;;;;;;;0.30;0.30;;;10.30;55.60;;;;;;20484;6869;310450;-85
2024/01/02 09:01:33;;;;;;;0.20;0.20;;;10.40;55.90;;;;;;20495;6869;309089;-86
2024/01/02 09:03:59;;;;;;;0.20;0.20;;;10.60;55.70;;;;;;20489;6869;309124;-86
2024/01/02 09:06:25;;;;;;;0.20;0.20;;;11.00;55.00;;;;;;20492;6869;309932;-87
2024/01/02 09:08:52;;;;;;;0.20;0.20;;;11.00;54.90;;;;;;20684;6869;116984;-87
2024/01/02 09:11:18;;;;;;;0.40;0.30;;;10.90;54.80;;;;;;20494;6869;310029;-87
2024/01/02 09:13:43;;;;;;;0.57;0.13;;;10.80;55.00;;;;;;20682;6869;116653;-87
2024/01/02 09:16:10;;;;;;;0.40;0.40;;;10.70;55.00;;;;;;20706;6869;119843;-86
2024/01/02 09:18:36;;;;;;;0.45;0.30;;;10.50;55.70;;;;;;20480;6869;279278;-86
2024/01/02 09:21:05;;;;;;;0.20;0.20;;;10.50;55.70;;;;;;20695;6869;118267;-86
2024/01/02 09:23:31;;;;;;;0.50;0.20;;;10.50;55.40;;;;;;20679;6869;120303;-88
2024/01/02 09:25:59;;;;;;;0.20;0.20;;;10.30;55.50;;;;;;20709;6869;117526;-86
2024/01/02 09:28:26;;;;;;;0.20;0.20;;;10.10;55.70;;;;;;20701;6869;117260;-85
2024/01/02 09:30:52;;;;;;;0.20;0.17;;;10.10;56.00;;;;;;20471;6869;309232;-89
2024/01/02 09:33:21;;;;;;;0.37;0.20;;;10.20;56.50;;;;;;20496;6869;279415;-86
2024/01/02 09:35:45;;;;;;;0.30;0.30;;;10.50;56.10;;;;;;20747;6869;67326;-84
2024/01/02 09:38:11;;;;;;;0.30;0.30;;;10.60;55.50;;;;;;20501;6869;279499;-85
2024/01/02 09:40:53;;;;;;;0.20;0.20;;;10.70;55.30;;;;;;20672;6869;119873;-85
2024/01/02 09:43:35;;;;;;;0.20;0.20;;;10.70;55.00;;;;;;20707;6869;118615;-85
2024/01/02 09:46:21;;;;;;;0.53;0.20;;;10.50;55.20;;;;;;20009;6884;121787;-85
2024/01/02 09:49:06;;;;;;;1.07;0.20;;;10.20;55.60;;;;;;20595;6878;117897;-85
2024/01/02 09:51:42;;;;;;;10.00;1.13;;;10.20;55.60;;;;;;20671;6878;117263;-82
2024/01/02 09:54:24;;;;;;;0.20;0.20;;;10.10;55.80;;;;;;20659;6884;117928;-82
2024/01/02 09:57:01;;;;;;;0.23;0.23;;;10.00;55.90;;;;;;20399;6890;280113;-82
2024/01/02 09:59:50;;;;;;;0.27;0.20;;;10.30;56.60;;;;;;20617;6890;117805;-83
2024/01/02 10:02:25;;;;;;;0.20;0.20;;;10.40;56.20;;;;;;20427;6890;340364;-82
2024/01/02 10:04:59;;;;;;;0.10;0.10;;;10.60;56.20;;;;;;20613;6890;117582;-83
2024/01/02 10:07:47;;;;;;;0.20;0.20;;;10.70;55.80;;;;;;20041;6890;117491;-82
2024/01/02 10:10:27;;;;;;;0.13;0.13;;;10.50;55.90;;;;;;20646;6890;117816;-83
2024/01/02 10:13:09;;;;;;;0.40;0.20;;;10.40;56.10;;;;;;20442;6890;281410;-84
2024/01/02 10:15:58;;;;;;;0.20;0.20;;;10.60;56.70;;;;;;20415;6890;279302;-84
2024/01/02 10:18:31;;;;;;;0.20;0.20;;;10.90;56.40;;;;;;20410;6890;281571;-82
2024/01/02 10:21:02;;;;;;;0.13;0.13;;;11.30;55.60;;;;;;20649;6890;117659;-83
2024/01/02 10:23:54;;;;;;;0.20;0.20;;;11.20;55.20;;;;;;20686;6875;117440;-83
2024/01/02 10:26:20;;;;;;;0.20;0.20;;;11.00;55.40;;;;;;20622;6890;118178;-84
2024/01/02 10:28:46;;;;;;;0.30;0.30;;;10.70;56.00;;;;;;20619;6890;118622;-86
2024/01/02 10:31:19;;;;;;;0.30;0.30;;;10.70;56.00;;;;;;20431;6890;282310;-86
2024/01/02 10:33:48;;;;;;;0.27;0.27;;;10.80;56.40;;;;;;20632;6890;120059;-86
2024/01/02 10:36:13;;;;;;;0.23;0.23;;;10.90;56.10;;;;;;20628;6890;117443;-86
2024/01/02 10:38:49;;;;;;;0.20;0.20;;;10.80;56.10;;;;;;20614;6890;117888;-84
2024/01/02 10:41:45;;;;;;;0.37;0.30;;;10.90;56.60;;;;;;20012;6890;280991;-84
2024/01/02 10:44:13;;;;;;;0.30;0.30;;;10.90;56.60;;;;;;20438;6890;279706;-86
2024/01/02 10:46:46;;;;;;;0.50;0.20;;;11.30;56.30;;;;;;20620;6890;119279;-83
2024/01/02 10:49:28;;;;;;;0.10;0.10;;;11.30;55.80;;;;;;20427;6890;310054;-84
2024/01/02 10:51:53;;;;;;;0.20;0.20;;;11.40;56.00;;;;;;20469;6890;308423;-82
2024/01/02 10:54:19;;;;;;;0.17;0.17;;;11.70;55.40;;;;;;20460;6875;279202;-84
2024/01/02 10:56:57;;;;;;;0.63;0.30;;;11.90;55.20;;;;;;20403;6890;280017;-84
2024/01/02 10:59:36;;;;;;;0.17;0.13;;;12.10;54.50;;;;;;20345;6888;309181;-83
2024/01/02 11:02:03;;;;;;;0.20;0.20;;;12.20;54.30;;;;;;20643;6890;118014;-85
2024/01/02 11:04:41;;;;;;;0.20;0.20;;;11.80;54.60;;;;;;20616;6890;118072;-85
2024/01/02 11:07:07;;;;;;;0.10;0.10;;;11.80;54.60;;;;;;20400;6890;279047;-83
2024/01/02 11:10:03;;;;;;;0.20;0.20;;;11.70;55.00;;;;;;20426;6890;281720;-83
2024/01/02 11:12:28;;;;;;;0.23;0.23;;;12.00;55.10;;;;;;20615;6890;121398;-84
2024/01/02 11:14:53;;;;;;;0.20;0.20;;;11.80;54.80;;;;;;20405;6890;309614;-84
2024/01/02 11:17:19;;;;;;;0.50;0.20;;;11.80;55.40;;;;;;20649;6890;117870;-87
2024/01/02 11:19:59;;;;;;;0.17;0.17;;;11.80;55.30;;;;;;20395;6890;282031;-85
2024/01/02 11:22:35;;;;;;;0.20;0.20;;;11.90;55.90;;;;;;20365;6890;322795;-84
2024/01/02 11:25:00;;;;;;;0.30;0.30;;;12.10;55.40;;;;;;20253;6890;120231;-86
2024/01/02 11:27:27;;;;;;;0.30;0.30;;;12.00;55.10;;;;;;20433;6890;310484;-86
2024/01/02 11:29:52;;;;;;;0.20;0.20;;;12.10;55.40;;;;;;20430;6890;279550;-87
2024/01/02 11:32:18;;;;;;;0.20;0.20;;;12.20;54.90;;;;;;20618;6890;117955;-87
2024/01/02 11:35:00;;;;;;;0.17;0.17;;;12.20;54.70;;;;;;20607;6890;117809;-87
2024/01/02 11:37:32;;;;;;;0.25;0.25;;;11.90;55.00;;;;;;20420;6890;310183;-87
2024/01/02 11:40:11;;;;;;;0.30;0.30;;;12.00;55.50;;;;;;20415;6890;309173;-87
2024/01/02 11:42:46;;;;;;;0.30;0.30;;;12.20;55.30;;;;;;20611;6890;119051;-83
2024/01/02 11:45:12;;;;;;;1.00;1.00;;;12.20;54.90;;;;;;20455;6875;280146;-87
2024/01/02 11:47:44;;;;;;;2.40;2.30;;;12.20;55.10;;;;;;20390;6890;311288;-87
2024/01/02 11:50:50;;;;;;;1.10;1.03;;;12.40;54.90;;;;;;20602;6674;306706;-85
2024/01/02 11:53:51;;;;;;;1.77;1.77;;;12.60;54.50;;;;;;20769;6800;117297;-86
2024/01/02 11:56:27;;;;;;;1.00;1.00;;;12.30;54.20;;;;;;20651;6816;118044;-87
2024/01/02 11:59:27;;;;;;;1.47;1.47;;;11.80;55.40;;;;;;20691;6807;119407;-87
2024/01/02 12:02:09;;;;;;;1.47;1.47;;;11.80;55.10;;;;;;20604;6826;306186;-88
2024/01/02 12:05:11;;;;;;;0.70;0.70;;;11.90;55.30;;;;;;20655;6770;277282;-89
2024/01/02 12:07:46;;;;;;;0.80;0.80;;;12.20;55.00;;;;;;20585;6789;307643;-87
2024/01/02 12:10:27;;;;;;;0.50;0.50;;;12.50;54.40;;;;;;20644;6786;118050;-91
2024/01/02 12:13:15;;;;;;;0.37;0.37;;;12.50;54.20;;;;;;20740;6789;118143;-92
2024/01/02 12:15:58;;;;;;;0.50;0.50;;;12.10;54.30;;;;;;20523;6804;310649;-89
2024/01/02 12:18:36;;;;;;;0.30;0.30;;;12.10;54.50;;;;;;20786;6788;70041;-89
2024/01/02 12:21:19;;;;;;;0.50;0.50;;;12.10;54.40;;;;;;20696;6673;308035;-88
2024/01/02 12:24:06;;;;;;;0.53;0.53;;;12.10;54.60;;;;;;20909;6757;72528;-90
2024/01/02 12:26:42;;;;;;;0.73;0.73;;;12.10;54.50;;;;;;20684;6757;306662;-91
2024/01/02 12:29:17;;;;;;;0.70;0.70;;;12.20;54.70;;;;;;20802;6757;71438;-89
2024/01/02 12:31:53;;;;;;;0.37;0.37;;;12.20;54.50;;;;;;20862;6772;67339;-90
2024/01/02 12:34:27;;;;;;;0.20;0.20;;;12.00;54.70;;;;;;20888;6762;66908;-89
2024/01/02 12:37:14;;;;;;;1.10;1.10;;;11.70;54.90;;;;;;20597;6777;310985;-88
2024/01/02 12:39:59;;;;;;;0.47;0.47;;;11.90;55.30;;;;;;20769;6760;68601;-92
2024/01/02 12:42:35;;;;;;;;;;;;;;;;;;;;;
2024/01/02 12:44:59;;;;;;;0.50;0.50;;;11.60;56.20;;;;;;20842;6810;67341;-86
2024/01/02 12:47:38;;;;;;;0.97;0.30;;;11.50;55.40;;;;;;20932;6754;68180;-90
2024/01/02 12:50:19;;;;;;;0.68;0.68;;;11.50;55.80;;;;;;20566;6754;308285;-89
2024/01/02 12:52:54;;;;;;;0.90;0.40;;;11.70;56.30;;;;;;20798;6739;304027;-88